sensor_id;sensor_type;location;lat;lon;timestamp;P1;durP1;ratioP1;P2;durP2;ratioP2
65387;SDS011;51992;53.528;49.474;2022-09-29T00:01:53;4.80;;;2.10;;
65387;SDS011;51992;53.528;49.474;2022-09-29T00:04:19;4.93;;;2.35;;
65387;SDS011;51992;53.528;49.474;2022-09-29T00:06:44;4.90;;;2.33;;
65387;SDS011;51992;53.528;49.474;2022-09-29T00:09:10;5.45;;;2.20;;
65387;SDS011;51992;53.528;49.474;2022-09-29T00:11:36;4.05;;;2.22;;
65387;SDS011;51992;53.528;49.474;2022-09-29T00:14:02;2.05;;;1.55;;
65387;SDS011;51992;53.528;49.474;2022-09-29T00:16:27;1.73;;;1.63;;
65387;SDS011;51992;53.528;49.474;2022-09-29T00:18:54;2.75;;;1.98;;
65387;SDS011;51992;53.528;49.474;2022-09-29T00:21:20;5.07;;;2.00;;
65387;SDS011;51992;53.528;49.474;2022-09-29T00:23:46;5.15;;;1.85;;
65387;SDS011;51992;53.528;49.474;2022-09-29T00:26:16;2.85;;;2.25;;
65387;SDS011;51992;53.528;49.474;2022-09-29T00:28:53;3.60;;;1.97;;
65387;SDS011;51992;53.528;49.474;2022-09-29T00:31:21;1.65;;;1.48;;
65387;SDS011;51992;53.528;49.474;2022-09-29T00:33:47;2.13;;;1.83;;
65387;SDS011;51992;53.528;49.474;2022-09-29T00:36:14;2.92;;;1.77;;
65387;SDS011;51992;53.528;49.474;2022-09-29T00:38:40;1.42;;;1.33;;
65387;SDS011;51992;53.528;49.474;2022-09-29T00:41:06;4.65;;;1.95;;
65387;SDS011;51992;53.528;49.474;2022-09-29T00:46:19;1.67;;;1.50;;
65387;SDS011;51992;53.528;49.474;2022-09-29T00:48:45;3.30;;;1.63;;
65387;SDS011;51992;53.528;49.474;2022-09-29T00:51:12;1.50;;;1.40;;
65387;SDS011;51992;53.528;49.474;2022-09-29T00:53:38;3.20;;;1.42;;
65387;SDS011;51992;53.528;49.474;2022-09-29T00:56:06;0.85;;;0.85;;
65387;SDS011;51992;53.528;49.474;2022-09-29T00:58:33;1.90;;;1.70;;
65387;SDS011;51992;53.528;49.474;2022-09-29T01:01:02;4.68;;;1.77;;
65387;SDS011;51992;53.528;49.474;2022-09-29T01:03:30;3.17;;;1.75;;
65387;SDS011;51992;53.528;49.474;2022-09-29T01:05:59;1.95;;;1.80;;
65387;SDS011;51992;53.528;49.474;2022-09-29T01:08:37;5.95;;;2.38;;
65387;SDS011;51992;53.528;49.474;2022-09-29T01:11:05;4.63;;;2.30;;
65387;SDS011;51992;53.528;49.474;2022-09-29T01:13:31;4.68;;;2.47;;
65387;SDS011;51992;53.528;49.474;2022-09-29T01:15:57;2.08;;;1.77;;
65387;SDS011;51992;53.528;49.474;2022-09-29T01:18:23;3.28;;;2.30;;
65387;SDS011;51992;53.528;49.474;2022-09-29T01:39:29;3.90;;;2.20;;
65387;SDS011;51992;53.528;49.474;2022-09-29T01:49:32;2.13;;;1.80;;
65387;SDS011;51992;53.528;49.474;2022-09-29T01:52:02;2.10;;;1.80;;
65387;SDS011;51992;53.528;49.474;2022-09-29T01:54:31;2.17;;;1.67;;
65387;SDS011;51992;53.528;49.474;2022-09-29T01:57:00;2.30;;;2.00;;
65387;SDS011;51992;53.528;49.474;2022-09-29T01:59:29;6.75;;;2.00;;
65387;SDS011;51992;53.528;49.474;2022-09-29T02:02:00;7.13;;;2.30;;
65387;SDS011;51992;53.528;49.474;2022-09-29T02:05:12;6.28;;;2.67;;
65387;SDS011;51992;53.528;49.474;2022-09-29T02:07:17;5.05;;;2.28;;
65387;SDS011;51992;53.528;49.474;2022-09-29T02:09:46;3.08;;;1.85;;
65387;SDS011;51992;53.528;49.474;2022-09-29T02:12:15;3.65;;;2.08;;
65387;SDS011;51992;53.528;49.474;2022-09-29T02:14:44;2.35;;;1.90;;
65387;SDS011;51992;53.528;49.474;2022-09-29T02:17:19;4.32;;;2.40;;
65387;SDS011;51992;53.528;49.474;2022-09-29T02:19:46;7.75;;;2.03;;
65387;SDS011;51992;53.528;49.474;2022-09-29T02:22:13;4.13;;;2.13;;
65387;SDS011;51992;53.528;49.474;2022-09-29T02:24:39;4.22;;;2.70;;
65387;SDS011;51992;53.528;49.474;2022-09-29T02:27:05;4.22;;;2.17;;
65387;SDS011;51992;53.528;49.474;2022-09-29T02:29:31;3.55;;;2.30;;
65387;SDS011;51992;53.528;49.474;2022-09-29T02:31:57;3.45;;;2.50;;
65387;SDS011;51992;53.528;49.474;2022-09-29T02:34:26;6.60;;;2.55;;
65387;SDS011;51992;53.528;49.474;2022-09-29T02:37:04;4.50;;;2.58;;
65387;SDS011;51992;53.528;49.474;2022-09-29T02:45:00;3.05;;;2.22;;
65387;SDS011;51992;53.528;49.474;2022-09-29T02:50:01;3.78;;;2.30;;
65387;SDS011;51992;53.528;49.474;2022-09-29T02:57:51;2.83;;;2.10;;
65387;SDS011;51992;53.528;49.474;2022-09-29T03:00:19;4.05;;;2.20;;
65387;SDS011;51992;53.528;49.474;2022-09-29T03:02:45;3.63;;;1.90;;
65387;SDS011;51992;53.528;49.474;2022-09-29T03:05:12;3.90;;;2.17;;
65387;SDS011;51992;53.528;49.474;2022-09-29T03:07:38;4.00;;;2.45;;
65387;SDS011;51992;53.528;49.474;2022-09-29T03:10:05;3.55;;;2.28;;
65387;SDS011;51992;53.528;49.474;2022-09-29T03:12:31;5.28;;;2.15;;
65387;SDS011;51992;53.528;49.474;2022-09-29T03:14:56;3.42;;;2.30;;
65387;SDS011;51992;53.528;49.474;2022-09-29T03:17:22;4.82;;;2.47;;
65387;SDS011;51992;53.528;49.474;2022-09-29T03:19:48;5.10;;;2.28;;
65387;SDS011;51992;53.528;49.474;2022-09-29T03:22:13;3.03;;;2.58;;
65387;SDS011;51992;53.528;49.474;2022-09-29T03:24:39;2.85;;;2.10;;
65387;SDS011;51992;53.528;49.474;2022-09-29T03:27:06;3.55;;;2.30;;
65387;SDS011;51992;53.528;49.474;2022-09-29T03:29:34;4.20;;;2.85;;
65387;SDS011;51992;53.528;49.474;2022-09-29T03:32:00;3.90;;;2.63;;
65387;SDS011;51992;53.528;49.474;2022-09-29T03:34:25;5.80;;;2.88;;
65387;SDS011;51992;53.528;49.474;2022-09-29T03:36:51;4.40;;;2.90;;
65387;SDS011;51992;53.528;49.474;2022-09-29T03:39:17;3.17;;;2.40;;
65387;SDS011;51992;53.528;49.474;2022-09-29T03:41:42;3.60;;;2.22;;
65387;SDS011;51992;53.528;49.474;2022-09-29T03:44:08;3.92;;;2.30;;
65387;SDS011;51992;53.528;49.474;2022-09-29T03:46:37;3.92;;;2.60;;
65387;SDS011;51992;53.528;49.474;2022-09-29T03:49:03;3.53;;;2.72;;
65387;SDS011;51992;53.528;49.474;2022-09-29T03:51:29;5.53;;;2.80;;
65387;SDS011;51992;53.528;49.474;2022-09-29T03:53:54;5.90;;;3.53;;
65387;SDS011;51992;53.528;49.474;2022-09-29T03:56:20;3.80;;;2.42;;
65387;SDS011;51992;53.528;49.474;2022-09-29T03:58:46;4.45;;;2.70;;
65387;SDS011;51992;53.528;49.474;2022-09-29T04:01:11;5.38;;;2.72;;
65387;SDS011;51992;53.528;49.474;2022-09-29T04:03:37;7.00;;;3.03;;
65387;SDS011;51992;53.528;49.474;2022-09-29T04:06:03;5.72;;;4.00;;
65387;SDS011;51992;53.528;49.474;2022-09-29T04:08:28;9.35;;;5.70;;
65387;SDS011;51992;53.528;49.474;2022-09-29T04:10:54;11.85;;;6.75;;
65387;SDS011;51992;53.528;49.474;2022-09-29T04:13:20;10.65;;;5.40;;
65387;SDS011;51992;53.528;49.474;2022-09-29T04:15:48;11.82;;;6.07;;
65387;SDS011;51992;53.528;49.474;2022-09-29T04:18:14;10.27;;;5.10;;
65387;SDS011;51992;53.528;49.474;2022-09-29T04:20:40;8.25;;;4.80;;
65387;SDS011;51992;53.528;49.474;2022-09-29T04:23:06;7.82;;;5.13;;
65387;SDS011;51992;53.528;49.474;2022-09-29T04:25:32;5.75;;;4.63;;
65387;SDS011;51992;53.528;49.474;2022-09-29T04:27:58;6.38;;;4.15;;
65387;SDS011;51992;53.528;49.474;2022-09-29T04:30:24;5.35;;;4.00;;
65387;SDS011;51992;53.528;49.474;2022-09-29T04:32:49;9.27;;;4.82;;
65387;SDS011;51992;53.528;49.474;2022-09-29T04:35:15;7.28;;;4.18;;
65387;SDS011;51992;53.528;49.474;2022-09-29T04:37:41;3.75;;;2.70;;
65387;SDS011;51992;53.528;49.474;2022-09-29T04:40:06;4.50;;;3.00;;
65387;SDS011;51992;53.528;49.474;2022-09-29T04:42:32;6.13;;;3.95;;
65387;SDS011;51992;53.528;49.474;2022-09-29T04:44:58;5.70;;;3.40;;
65387;SDS011;51992;53.528;49.474;2022-09-29T04:47:24;6.18;;;3.60;;
65387;SDS011;51992;53.528;49.474;2022-09-29T04:49:49;8.05;;;4.07;;
65387;SDS011;51992;53.528;49.474;2022-09-29T04:52:15;6.47;;;3.90;;
65387;SDS011;51992;53.528;49.474;2022-09-29T04:54:41;9.85;;;4.78;;
65387;SDS011;51992;53.528;49.474;2022-09-29T04:57:07;7.05;;;3.95;;
65387;SDS011;51992;53.528;49.474;2022-09-29T04:59:34;7.70;;;4.90;;
65387;SDS011;51992;53.528;49.474;2022-09-29T05:01:59;9.27;;;4.85;;
65387;SDS011;51992;53.528;49.474;2022-09-29T05:04:26;8.45;;;4.40;;
65387;SDS011;51992;53.528;49.474;2022-09-29T05:06:55;6.15;;;3.70;;
65387;SDS011;51992;53.528;49.474;2022-09-29T05:09:20;5.13;;;3.80;;
65387;SDS011;51992;53.528;49.474;2022-09-29T05:11:46;7.45;;;3.65;;
65387;SDS011;51992;53.528;49.474;2022-09-29T05:14:12;3.85;;;3.47;;
65387;SDS011;51992;53.528;49.474;2022-09-29T05:16:38;8.23;;;4.00;;
65387;SDS011;51992;53.528;49.474;2022-09-29T05:19:03;7.55;;;4.20;;
65387;SDS011;51992;53.528;49.474;2022-09-29T05:21:29;13.45;;;3.97;;
65387;SDS011;51992;53.528;49.474;2022-09-29T05:23:55;7.30;;;3.95;;
65387;SDS011;51992;53.528;49.474;2022-09-29T05:26:21;7.60;;;3.90;;
65387;SDS011;51992;53.528;49.474;2022-09-29T05:28:47;3.92;;;3.42;;
65387;SDS011;51992;53.528;49.474;2022-09-29T05:31:13;5.47;;;3.70;;
65387;SDS011;51992;53.528;49.474;2022-09-29T05:33:39;4.05;;;3.65;;
65387;SDS011;51992;53.528;49.474;2022-09-29T05:36:05;6.63;;;3.80;;
65387;SDS011;51992;53.528;49.474;2022-09-29T05:38:31;6.35;;;4.28;;
65387;SDS011;51992;53.528;49.474;2022-09-29T05:40:57;6.07;;;4.05;;
65387;SDS011;51992;53.528;49.474;2022-09-29T05:43:23;5.95;;;3.60;;
65387;SDS011;51992;53.528;49.474;2022-09-29T05:45:49;6.90;;;3.60;;
65387;SDS011;51992;53.528;49.474;2022-09-29T05:48:15;5.95;;;3.60;;
65387;SDS011;51992;53.528;49.474;2022-09-29T05:50:42;5.35;;;4.13;;
65387;SDS011;51992;53.528;49.474;2022-09-29T05:53:08;12.77;;;4.70;;
65387;SDS011;51992;53.528;49.474;2022-09-29T05:55:35;12.73;;;4.20;;
65387;SDS011;51992;53.528;49.474;2022-09-29T05:58:01;17.83;;;4.90;;
65387;SDS011;51992;53.528;49.474;2022-09-29T06:00:27;12.15;;;5.28;;
65387;SDS011;51992;53.528;49.474;2022-09-29T06:02:53;9.88;;;4.22;;
65387;SDS011;51992;53.528;49.474;2022-09-29T06:05:18;4.82;;;3.25;;
65387;SDS011;51992;53.528;49.474;2022-09-29T06:07:44;5.45;;;3.00;;
65387;SDS011;51992;53.528;49.474;2022-09-29T06:10:10;3.92;;;2.53;;
65387;SDS011;51992;53.528;49.474;2022-09-29T06:12:35;5.43;;;3.28;;
65387;SDS011;51992;53.528;49.474;2022-09-29T06:15:04;5.63;;;2.67;;
65387;SDS011;51992;53.528;49.474;2022-09-29T06:17:30;4.60;;;3.10;;
65387;SDS011;51992;53.528;49.474;2022-09-29T06:19:56;4.20;;;2.75;;
65387;SDS011;51992;53.528;49.474;2022-09-29T06:22:22;3.58;;;3.00;;
65387;SDS011;51992;53.528;49.474;2022-09-29T06:24:49;8.05;;;3.13;;
65387;SDS011;51992;53.528;49.474;2022-09-29T06:27:14;7.07;;;2.85;;
65387;SDS011;51992;53.528;49.474;2022-09-29T06:29:41;7.70;;;2.90;;
65387;SDS011;51992;53.528;49.474;2022-09-29T06:32:07;9.02;;;2.63;;
65387;SDS011;51992;53.528;49.474;2022-09-29T06:34:33;9.10;;;3.17;;
65387;SDS011;51992;53.528;49.474;2022-09-29T06:36:58;9.52;;;2.55;;
65387;SDS011;51992;53.528;49.474;2022-09-29T06:39:43;8.55;;;3.47;;
65387;SDS011;51992;53.528;49.474;2022-09-29T06:42:09;4.53;;;2.55;;
65387;SDS011;51992;53.528;49.474;2022-09-29T06:44:34;6.57;;;3.30;;
65387;SDS011;51992;53.528;49.474;2022-09-29T06:47:00;6.82;;;2.65;;
65387;SDS011;51992;53.528;49.474;2022-09-29T06:49:26;5.10;;;2.30;;
65387;SDS011;51992;53.528;49.474;2022-09-29T06:51:52;11.48;;;2.17;;
65387;SDS011;51992;53.528;49.474;2022-09-29T06:54:18;7.20;;;2.20;;
65387;SDS011;51992;53.528;49.474;2022-09-29T06:56:49;11.73;;;3.03;;
65387;SDS011;51992;53.528;49.474;2022-09-29T06:59:15;6.10;;;2.47;;
65387;SDS011;51992;53.528;49.474;2022-09-29T07:01:41;6.03;;;2.50;;
65387;SDS011;51992;53.528;49.474;2022-09-29T07:04:07;11.45;;;3.03;;
65387;SDS011;51992;53.528;49.474;2022-09-29T07:06:33;8.23;;;3.10;;
65387;SDS011;51992;53.528;49.474;2022-09-29T07:08:59;3.25;;;1.85;;
65387;SDS011;51992;53.528;49.474;2022-09-29T07:11:25;1.65;;;1.40;;
65387;SDS011;51992;53.528;49.474;2022-09-29T07:13:52;1.55;;;1.23;;
65387;SDS011;51992;53.528;49.474;2022-09-29T07:16:18;5.90;;;1.55;;
65387;SDS011;51992;53.528;49.474;2022-09-29T07:18:44;3.85;;;1.60;;
65387;SDS011;51992;53.528;49.474;2022-09-29T07:21:14;1.25;;;1.08;;
65387;SDS011;51992;53.528;49.474;2022-09-29T07:23:43;3.05;;;1.00;;
65387;SDS011;51992;53.528;49.474;2022-09-29T07:26:09;1.73;;;1.10;;
65387;SDS011;51992;53.528;49.474;2022-09-29T07:28:35;2.08;;;1.40;;
65387;SDS011;51992;53.528;49.474;2022-09-29T07:31:02;2.38;;;1.30;;
65387;SDS011;51992;53.528;49.474;2022-09-29T07:33:32;5.28;;;1.60;;
65387;SDS011;51992;53.528;49.474;2022-09-29T07:35:58;3.67;;;1.70;;
65387;SDS011;51992;53.528;49.474;2022-09-29T07:38:28;1.45;;;1.33;;
65387;SDS011;51992;53.528;49.474;2022-09-29T07:40:54;2.35;;;1.65;;
65387;SDS011;51992;53.528;49.474;2022-09-29T07:43:20;1.48;;;1.27;;
65387;SDS011;51992;53.528;49.474;2022-09-29T07:45:49;2.22;;;1.70;;
65387;SDS011;51992;53.528;49.474;2022-09-29T07:48:15;2.20;;;1.38;;
65387;SDS011;51992;53.528;49.474;2022-09-29T07:50:41;3.88;;;1.20;;
65387;SDS011;51992;53.528;49.474;2022-09-29T07:53:06;2.55;;;1.20;;
65387;SDS011;51992;53.528;49.474;2022-09-29T07:55:32;4.20;;;1.83;;
65387;SDS011;51992;53.528;49.474;2022-09-29T07:57:58;2.05;;;1.60;;
65387;SDS011;51992;53.528;49.474;2022-09-29T08:00:25;3.45;;;1.90;;
65387;SDS011;51992;53.528;49.474;2022-09-29T08:02:51;8.55;;;1.70;;
65387;SDS011;51992;53.528;49.474;2022-09-29T08:05:17;4.78;;;1.92;;
65387;SDS011;51992;53.528;49.474;2022-09-29T08:07:43;3.80;;;1.42;;
65387;SDS011;51992;53.528;49.474;2022-09-29T08:10:09;1.65;;;1.30;;
65387;SDS011;51992;53.528;49.474;2022-09-29T08:12:35;3.35;;;1.67;;
65387;SDS011;51992;53.528;49.474;2022-09-29T08:15:00;4.10;;;1.05;;
65387;SDS011;51992;53.528;49.474;2022-09-29T08:17:26;3.05;;;0.90;;
65387;SDS011;51992;53.528;49.474;2022-09-29T08:19:52;0.85;;;0.80;;
65387;SDS011;51992;53.528;49.474;2022-09-29T08:22:18;0.43;;;0.43;;
65387;SDS011;51992;53.528;49.474;2022-09-29T08:24:43;3.67;;;0.90;;
65387;SDS011;51992;53.528;49.474;2022-09-29T08:27:09;3.13;;;0.90;;
65387;SDS011;51992;53.528;49.474;2022-09-29T08:29:35;1.08;;;0.98;;
65387;SDS011;51992;53.528;49.474;2022-09-29T08:32:01;3.17;;;0.80;;
65387;SDS011;51992;53.528;49.474;2022-09-29T08:34:27;1.20;;;1.10;;
65387;SDS011;51992;53.528;49.474;2022-09-29T08:36:52;1.67;;;1.25;;
65387;SDS011;51992;53.528;49.474;2022-09-29T08:39:20;1.73;;;0.95;;
65387;SDS011;51992;53.528;49.474;2022-09-29T08:41:50;2.83;;;1.73;;
65387;SDS011;51992;53.528;49.474;2022-09-29T08:49:15;2.65;;;1.70;;
65387;SDS011;51992;53.528;49.474;2022-09-29T08:51:47;4.03;;;1.45;;
65387;SDS011;51992;53.528;49.474;2022-09-29T08:54:18;1.65;;;1.30;;
65387;SDS011;51992;53.528;49.474;2022-09-29T08:56:45;2.13;;;1.17;;
65387;SDS011;51992;53.528;49.474;2022-09-29T08:59:11;0.75;;;0.75;;
65387;SDS011;51992;53.528;49.474;2022-09-29T09:01:41;1.75;;;1.20;;
65387;SDS011;51992;53.528;49.474;2022-09-29T09:07:15;1.00;;;0.65;;
65387;SDS011;51992;53.528;49.474;2022-09-29T09:12:16;1.88;;;0.90;;
65387;SDS011;51992;53.528;49.474;2022-09-29T09:17:18;0.63;;;0.57;;
65387;SDS011;51992;53.528;49.474;2022-09-29T09:22:44;0.65;;;0.65;;
65387;SDS011;51992;53.528;49.474;2022-09-29T09:25:19;1.33;;;0.43;;
65387;SDS011;51992;53.528;49.474;2022-09-29T09:27:47;0.70;;;0.70;;
65387;SDS011;51992;53.528;49.474;2022-09-29T09:30:17;1.38;;;0.50;;
65387;SDS011;51992;53.528;49.474;2022-09-29T09:32:48;0.73;;;0.57;;
65387;SDS011;51992;53.528;49.474;2022-09-29T09:35:24;0.82;;;0.47;;
65387;SDS011;51992;53.528;49.474;2022-09-29T09:37:53;0.52;;;0.52;;
65387;SDS011;51992;53.528;49.474;2022-09-29T09:42:53;2.78;;;0.70;;
65387;SDS011;51992;53.528;49.474;2022-09-29T09:45:28;0.88;;;0.88;;
65387;SDS011;51992;53.528;49.474;2022-09-29T09:48:00;1.75;;;0.80;;
65387;SDS011;51992;53.528;49.474;2022-09-29T09:50:28;1.20;;;0.80;;
65387;SDS011;51992;53.528;49.474;2022-09-29T09:52:58;1.25;;;0.68;;
65387;SDS011;51992;53.528;49.474;2022-09-29T09:55:26;1.27;;;1.13;;
65387;SDS011;51992;53.528;49.474;2022-09-29T10:03:03;2.88;;;2.50;;
65387;SDS011;51992;53.528;49.474;2022-09-29T10:05:34;2.72;;;2.17;;
65387;SDS011;51992;53.528;49.474;2022-09-29T10:08:03;1.27;;;1.17;;
65387;SDS011;51992;53.528;49.474;2022-09-29T10:10:30;1.00;;;0.70;;
65387;SDS011;51992;53.528;49.474;2022-09-29T10:13:04;1.05;;;0.77;;
65387;SDS011;51992;53.528;49.474;2022-09-29T10:15:32;0.70;;;0.60;;
65387;SDS011;51992;53.528;49.474;2022-09-29T10:18:22;0.47;;;0.47;;
65387;SDS011;51992;53.528;49.474;2022-09-29T10:20:45;1.08;;;0.52;;
65387;SDS011;51992;53.528;49.474;2022-09-29T10:23:19;0.40;;;0.40;;
65387;SDS011;51992;53.528;49.474;2022-09-29T10:25:56;2.83;;;0.50;;
65387;SDS011;51992;53.528;49.474;2022-09-29T10:28:23;1.17;;;0.70;;
65387;SDS011;51992;53.528;49.474;2022-09-29T10:30:49;0.50;;;0.50;;
65387;SDS011;51992;53.528;49.474;2022-09-29T10:33:17;3.60;;;1.15;;
65387;SDS011;51992;53.528;49.474;2022-09-29T10:35:44;1.98;;;0.88;;
65387;SDS011;51992;53.528;49.474;2022-09-29T10:38:22;1.73;;;0.70;;
65387;SDS011;51992;53.528;49.474;2022-09-29T10:40:58;1.23;;;0.70;;
65387;SDS011;51992;53.528;49.474;2022-09-29T10:43:36;0.80;;;0.70;;
65387;SDS011;51992;53.528;49.474;2022-09-29T10:46:03;1.20;;;0.90;;
65387;SDS011;51992;53.528;49.474;2022-09-29T10:48:29;6.93;;;1.00;;
65387;SDS011;51992;53.528;49.474;2022-09-29T10:50:58;14.45;;;1.58;;
65387;SDS011;51992;53.528;49.474;2022-09-29T10:53:32;4.55;;;1.30;;
65387;SDS011;51992;53.528;49.474;2022-09-29T10:55:58;1.45;;;1.10;;
65387;SDS011;51992;53.528;49.474;2022-09-29T10:58:34;1.42;;;0.80;;
65387;SDS011;51992;53.528;49.474;2022-09-29T11:01:05;5.90;;;1.30;;
65387;SDS011;51992;53.528;49.474;2022-09-29T11:03:32;1.60;;;1.10;;
65387;SDS011;51992;53.528;49.474;2022-09-29T11:08:25;4.88;;;0.93;;
65387;SDS011;51992;53.528;49.474;2022-09-29T11:11:53;0.98;;;0.70;;
65387;SDS011;51992;53.528;49.474;2022-09-29T11:13:47;2.35;;;0.82;;
65387;SDS011;51992;53.528;49.474;2022-09-29T11:16:14;1.52;;;0.80;;
65387;SDS011;51992;53.528;49.474;2022-09-29T11:18:41;3.58;;;1.15;;
65387;SDS011;51992;53.528;49.474;2022-09-29T11:23:38;1.92;;;1.45;;
65387;SDS011;51992;53.528;49.474;2022-09-29T11:26:10;7.60;;;1.60;;
65387;SDS011;51992;53.528;49.474;2022-09-29T11:36:50;1.70;;;1.60;;
65387;SDS011;51992;53.528;49.474;2022-09-29T11:42:08;3.17;;;2.25;;
65387;SDS011;51992;53.528;49.474;2022-09-29T12:00:11;1.40;;;1.00;;
65387;SDS011;51992;53.528;49.474;2022-09-29T12:10:24;7.80;;;1.80;;
65387;SDS011;51992;53.528;49.474;2022-09-29T12:13:07;7.20;;;2.22;;
65387;SDS011;51992;53.528;49.474;2022-09-29T12:15:42;7.93;;;1.88;;
65387;SDS011;51992;53.528;49.474;2022-09-29T12:18:17;10.15;;;2.45;;
65387;SDS011;51992;53.528;49.474;2022-09-29T12:20:44;8.52;;;2.30;;
65387;SDS011;51992;53.528;49.474;2022-09-29T12:23:12;12.70;;;3.38;;
65387;SDS011;51992;53.528;49.474;2022-09-29T12:25:49;6.82;;;2.90;;
65387;SDS011;51992;53.528;49.474;2022-09-29T12:28:17;9.43;;;2.70;;
65387;SDS011;51992;53.528;49.474;2022-09-29T12:36:00;3.25;;;2.38;;
65387;SDS011;51992;53.528;49.474;2022-09-29T12:38:31;3.22;;;2.60;;
65387;SDS011;51992;53.528;49.474;2022-09-29T12:43:38;3.85;;;2.75;;
65387;SDS011;51992;53.528;49.474;2022-09-29T12:46:09;6.30;;;3.25;;
65387;SDS011;51992;53.528;49.474;2022-09-29T12:48:43;10.27;;;3.33;;
65387;SDS011;51992;53.528;49.474;2022-09-29T12:56:32;9.50;;;3.50;;
65387;SDS011;51992;53.528;49.474;2022-09-29T12:59:34;7.75;;;3.95;;
65387;SDS011;51992;53.528;49.474;2022-09-29T13:07:47;9.68;;;4.82;;
65387;SDS011;51992;53.528;49.474;2022-09-29T13:22:48;11.43;;;5.32;;
65387;SDS011;51992;53.528;49.474;2022-09-29T13:25:23;9.18;;;4.03;;
65387;SDS011;51992;53.528;49.474;2022-09-29T13:27:53;7.40;;;4.50;;
65387;SDS011;51992;53.528;49.474;2022-09-29T13:30:26;7.47;;;4.60;;
65387;SDS011;51992;53.528;49.474;2022-09-29T13:35:54;7.70;;;5.63;;
65387;SDS011;51992;53.528;49.474;2022-09-29T13:38:30;8.77;;;5.90;;
65387;SDS011;51992;53.528;49.474;2022-09-29T13:41:10;11.88;;;6.97;;
65387;SDS011;51992;53.528;49.474;2022-09-29T13:46:25;13.57;;;6.03;;
65387;SDS011;51992;53.528;49.474;2022-09-29T13:48:52;20.55;;;9.60;;
65387;SDS011;51992;53.528;49.474;2022-09-29T13:51:23;16.77;;;8.10;;
65387;SDS011;51992;53.528;49.474;2022-09-29T13:56:38;9.73;;;6.25;;
65387;SDS011;51992;53.528;49.474;2022-09-29T13:59:10;9.85;;;5.80;;
65387;SDS011;51992;53.528;49.474;2022-09-29T14:01:40;12.70;;;6.57;;
65387;SDS011;51992;53.528;49.474;2022-09-29T14:06:52;16.40;;;9.70;;
65387;SDS011;51992;53.528;49.474;2022-09-29T14:09:22;12.30;;;8.40;;
65387;SDS011;51992;53.528;49.474;2022-09-29T14:11:49;23.58;;;15.65;;
65387;SDS011;51992;53.528;49.474;2022-09-29T14:14:17;19.25;;;9.07;;
65387;SDS011;51992;53.528;49.474;2022-09-29T14:16:46;17.98;;;10.45;;
65387;SDS011;51992;53.528;49.474;2022-09-29T14:22:00;17.52;;;14.60;;
65387;SDS011;51992;53.528;49.474;2022-09-29T14:38:01;16.77;;;10.82;;
65387;SDS011;51992;53.528;49.474;2022-09-29T14:40:28;23.83;;;21.20;;
65387;SDS011;51992;53.528;49.474;2022-09-29T14:45:59;35.13;;;20.60;;
65387;SDS011;51992;53.528;49.474;2022-09-29T14:48:47;23.40;;;15.63;;
65387;SDS011;51992;53.528;49.474;2022-09-29T14:51:36;21.73;;;13.35;;
65387;SDS011;51992;53.528;49.474;2022-09-29T14:56:54;19.35;;;14.80;;
65387;SDS011;51992;53.528;49.474;2022-09-29T15:02:15;27.35;;;18.13;;
65387;SDS011;51992;53.528;49.474;2022-09-29T15:04:41;19.25;;;13.43;;
65387;SDS011;51992;53.528;49.474;2022-09-29T15:07:10;14.13;;;8.68;;
65387;SDS011;51992;53.528;49.474;2022-09-29T15:09:37;11.87;;;8.23;;
65387;SDS011;51992;53.528;49.474;2022-09-29T15:12:11;10.90;;;6.90;;
65387;SDS011;51992;53.528;49.474;2022-09-29T15:14:38;11.57;;;5.97;;
65387;SDS011;51992;53.528;49.474;2022-09-29T15:19:39;13.55;;;6.72;;
65387;SDS011;51992;53.528;49.474;2022-09-29T15:22:30;12.48;;;8.27;;
65387;SDS011;51992;53.528;49.474;2022-09-29T15:27:42;9.05;;;5.10;;
65387;SDS011;51992;53.528;49.474;2022-09-29T15:30:17;11.30;;;6.53;;
65387;SDS011;51992;53.528;49.474;2022-09-29T15:32:44;11.07;;;5.65;;
65387;SDS011;51992;53.528;49.474;2022-09-29T15:35:11;9.90;;;6.47;;
65387;SDS011;51992;53.528;49.474;2022-09-29T15:40:13;8.70;;;6.18;;
65387;SDS011;51992;53.528;49.474;2022-09-29T15:42:39;16.90;;;9.98;;
65387;SDS011;51992;53.528;49.474;2022-09-29T15:45:08;20.42;;;12.95;;
65387;SDS011;51992;53.528;49.474;2022-09-29T15:47:36;21.13;;;13.77;;
65387;SDS011;51992;53.528;49.474;2022-09-29T15:50:04;21.15;;;13.18;;
65387;SDS011;51992;53.528;49.474;2022-09-29T15:52:40;25.95;;;19.25;;
65387;SDS011;51992;53.528;49.474;2022-09-29T15:55:10;23.52;;;17.35;;
65387;SDS011;51992;53.528;49.474;2022-09-29T15:57:43;25.63;;;17.77;;
65387;SDS011;51992;53.528;49.474;2022-09-29T16:05:15;15.82;;;10.25;;
65387;SDS011;51992;53.528;49.474;2022-09-29T16:07:53;13.23;;;7.78;;
65387;SDS011;51992;53.528;49.474;2022-09-29T16:10:25;6.95;;;5.53;;
65387;SDS011;51992;53.528;49.474;2022-09-29T16:12:52;8.05;;;5.72;;
65387;SDS011;51992;53.528;49.474;2022-09-29T16:17:50;12.30;;;7.32;;
65387;SDS011;51992;53.528;49.474;2022-09-29T16:20:18;15.48;;;8.43;;
65387;SDS011;51992;53.528;49.474;2022-09-29T16:22:48;11.27;;;6.63;;
65387;SDS011;51992;53.528;49.474;2022-09-29T16:27:54;10.20;;;6.07;;
65387;SDS011;51992;53.528;49.474;2022-09-29T16:30:22;9.07;;;5.68;;
65387;SDS011;51992;53.528;49.474;2022-09-29T16:32:52;10.48;;;5.70;;
65387;SDS011;51992;53.528;49.474;2022-09-29T16:38:13;9.50;;;5.40;;
65387;SDS011;51992;53.528;49.474;2022-09-29T16:40:40;8.35;;;5.13;;
65387;SDS011;51992;53.528;49.474;2022-09-29T16:43:15;8.57;;;5.18;;
65387;SDS011;51992;53.528;49.474;2022-09-29T16:45:41;8.10;;;5.53;;
65387;SDS011;51992;53.528;49.474;2022-09-29T16:48:07;10.27;;;5.88;;
65387;SDS011;51992;53.528;49.474;2022-09-29T16:50:33;10.68;;;6.13;;
65387;SDS011;51992;53.528;49.474;2022-09-29T16:52:59;8.63;;;5.72;;
65387;SDS011;51992;53.528;49.474;2022-09-29T16:55:26;13.38;;;6.15;;
65387;SDS011;51992;53.528;49.474;2022-09-29T17:00:24;15.15;;;8.07;;
65387;SDS011;51992;53.528;49.474;2022-09-29T17:02:53;14.70;;;8.95;;
65387;SDS011;51992;53.528;49.474;2022-09-29T17:05:25;12.13;;;6.32;;
65387;SDS011;51992;53.528;49.474;2022-09-29T17:08:01;14.35;;;5.65;;
65387;SDS011;51992;53.528;49.474;2022-09-29T17:10:27;9.40;;;4.63;;
65387;SDS011;51992;53.528;49.474;2022-09-29T17:12:53;14.50;;;4.43;;
65387;SDS011;51992;53.528;49.474;2022-09-29T17:15:19;8.18;;;4.45;;
65387;SDS011;51992;53.528;49.474;2022-09-29T17:17:47;11.90;;;4.93;;
65387;SDS011;51992;53.528;49.474;2022-09-29T17:20:20;9.27;;;5.10;;
65387;SDS011;51992;53.528;49.474;2022-09-29T17:22:53;8.07;;;4.50;;
65387;SDS011;51992;53.528;49.474;2022-09-29T17:25:19;9.02;;;4.00;;
65387;SDS011;51992;53.528;49.474;2022-09-29T17:27:45;6.55;;;4.20;;
65387;SDS011;51992;53.528;49.474;2022-09-29T17:30:29;8.25;;;3.90;;
65387;SDS011;51992;53.528;49.474;2022-09-29T17:32:55;6.68;;;3.80;;
65387;SDS011;51992;53.528;49.474;2022-09-29T17:35:27;11.70;;;3.90;;
65387;SDS011;51992;53.528;49.474;2022-09-29T17:37:54;5.20;;;3.70;;
65387;SDS011;51992;53.528;49.474;2022-09-29T17:40:21;6.93;;;4.00;;
65387;SDS011;51992;53.528;49.474;2022-09-29T17:42:48;8.93;;;4.47;;
65387;SDS011;51992;53.528;49.474;2022-09-29T17:45:15;8.05;;;4.60;;
65387;SDS011;51992;53.528;49.474;2022-09-29T17:47:45;6.93;;;4.35;;
65387;SDS011;51992;53.528;49.474;2022-09-29T17:52:49;18.23;;;9.98;;
65387;SDS011;51992;53.528;49.474;2022-09-29T17:55:15;22.67;;;10.32;;
65387;SDS011;51992;53.528;49.474;2022-09-29T17:57:40;18.17;;;9.15;;